SGN weather

Tan Son Nhat International Airport
Ho Chi Minh City, Ha Tinh Province, Vietnam

Public forecast

Using degrees Celsius for public forecast. Weather courtesy of forecast.io.

Current aviation weather report (METAR) for Tan Son Nhat International Airport

Retrieved 2020/04/07 15:30 UTC (27 minutes ago):

VVTS 071530Z 14006KT 050V160 9999 SCT020 28/24 Q1011 NOSIG

Aviation forecast (TAF) for Tan Son Nhat International Airport

Retrieved 2020/04/07 12:00 UTC (4 hours ago):

TAF VVTS 071100Z 0712/0818 15008KT 9999 SCT017 TEMPO 0807/0811 TS SCT015 FEW017CB